sensor_id;sensor_type;location;lat;lon;timestamp;pressure;altitude;pressure_sealevel;temperature;humidity
23417;BME280;11881;42.432;25.632;2024-02-26T00:00:41;98973.69;;;10.39;100.00
23417;BME280;11881;42.432;25.632;2024-02-26T00:03:07;98968.88;;;10.43;100.00
23417;BME280;11881;42.432;25.632;2024-02-26T00:05:33;98975.34;;;10.50;100.00
23417;BME280;11881;42.432;25.632;2024-02-26T00:07:58;98974.34;;;10.51;100.00
23417;BME280;11881;42.432;25.632;2024-02-26T00:10:23;98964.94;;;10.47;100.00
23417;BME280;11881;42.432;25.632;2024-02-26T00:12:49;98967.63;;;10.47;100.00
23417;BME280;11881;42.432;25.632;2024-02-26T00:15:15;98962.88;;;10.41;100.00
23417;BME280;11881;42.432;25.632;2024-02-26T00:17:40;98969.59;;;10.45;100.00
23417;BME280;11881;42.432;25.632;2024-02-26T00:20:06;98965.97;;;10.36;100.00
23417;BME280;11881;42.432;25.632;2024-02-26T00:22:35;98974.38;;;10.41;100.00
23417;BME280;11881;42.432;25.632;2024-02-26T00:25:01;98962.88;;;10.41;100.00
23417;BME280;11881;42.432;25.632;2024-02-26T00:27:26;98965.13;;;10.35;100.00
23417;BME280;11881;42.432;25.632;2024-02-26T00:29:52;98954.31;;;10.37;100.00
23417;BME280;11881;42.432;25.632;2024-02-26T00:32:17;98955.16;;;10.37;100.00
23417;BME280;11881;42.432;25.632;2024-02-26T00:34:43;98953.63;;;10.35;100.00
23417;BME280;11881;42.432;25.632;2024-02-26T00:37:08;98947.50;;;10.25;100.00
23417;BME280;11881;42.432;25.632;2024-02-26T00:39:34;98949.16;;;10.35;100.00
23417;BME280;11881;42.432;25.632;2024-02-26T00:42:00;98944.91;;;10.43;100.00
23417;BME280;11881;42.432;25.632;2024-02-26T00:44:25;98934.56;;;10.39;100.00
23417;BME280;11881;42.432;25.632;2024-02-26T00:46:50;98931.59;;;10.43;100.00
23417;BME280;11881;42.432;25.632;2024-02-26T00:49:16;98939.59;;;10.43;100.00
23417;BME280;11881;42.432;25.632;2024-02-26T00:51:42;98934.06;;;10.54;100.00
23417;BME280;11881;42.432;25.632;2024-02-26T00:54:07;98929.16;;;10.59;100.00
23417;BME280;11881;42.432;25.632;2024-02-26T00:56:32;98923.81;;;10.59;100.00
23417;BME280;11881;42.432;25.632;2024-02-26T00:58:58;98916.81;;;10.58;100.00
23417;BME280;11881;42.432;25.632;2024-02-26T01:01:23;98921.59;;;10.54;100.00
23417;BME280;11881;42.432;25.632;2024-02-26T01:03:49;98916.56;;;10.51;100.00
23417;BME280;11881;42.432;25.632;2024-02-26T01:06:14;98918.94;;;10.54;100.00
23417;BME280;11881;42.432;25.632;2024-02-26T01:08:40;98916.28;;;10.54;100.00
23417;BME280;11881;42.432;25.632;2024-02-26T01:11:05;98918.81;;;10.56;100.00
23417;BME280;11881;42.432;25.632;2024-02-26T01:13:31;98915.31;;;10.55;100.00
23417;BME280;11881;42.432;25.632;2024-02-26T01:15:56;98912.38;;;10.49;100.00
23417;BME280;11881;42.432;25.632;2024-02-26T01:18:22;98910.69;;;10.48;100.00
23417;BME280;11881;42.432;25.632;2024-02-26T01:20:48;98902.56;;;10.49;100.00
23417;BME280;11881;42.432;25.632;2024-02-26T01:23:14;98904.28;;;10.41;100.00
23417;BME280;11881;42.432;25.632;2024-02-26T01:25:39;98899.06;;;10.49;100.00
23417;BME280;11881;42.432;25.632;2024-02-26T01:28:05;98900.84;;;10.58;100.00
23417;BME280;11881;42.432;25.632;2024-02-26T01:30:31;98893.28;;;10.53;100.00
23417;BME280;11881;42.432;25.632;2024-02-26T01:32:57;98892.50;;;10.43;100.00
23417;BME280;11881;42.432;25.632;2024-02-26T01:35:22;98896.69;;;10.46;100.00
23417;BME280;11881;42.432;25.632;2024-02-26T01:37:48;98889.38;;;10.48;100.00
23417;BME280;11881;42.432;25.632;2024-02-26T01:40:13;98894.00;;;10.55;100.00
23417;BME280;11881;42.432;25.632;2024-02-26T01:42:43;98898.09;;;10.50;100.00
23417;BME280;11881;42.432;25.632;2024-02-26T01:45:15;98889.09;;;10.51;100.00
23417;BME280;11881;42.432;25.632;2024-02-26T01:47:46;98879.28;;;10.51;100.00
23417;BME280;11881;42.432;25.632;2024-02-26T01:50:12;98881.53;;;10.56;100.00
23417;BME280;11881;42.432;25.632;2024-02-26T01:52:37;98885.31;;;10.53;100.00
23417;BME280;11881;42.432;25.632;2024-02-26T01:55:03;98891.66;;;10.43;100.00
23417;BME280;11881;42.432;25.632;2024-02-26T01:57:29;98887.16;;;10.43;100.00
23417;BME280;11881;42.432;25.632;2024-02-26T01:59:55;98878.97;;;10.54;100.00
23417;BME280;11881;42.432;25.632;2024-02-26T02:02:20;98892.06;;;10.48;100.00
23417;BME280;11881;42.432;25.632;2024-02-26T02:04:46;98887.75;;;10.37;100.00
23417;BME280;11881;42.432;25.632;2024-02-26T02:07:12;98890.28;;;10.38;100.00
23417;BME280;11881;42.432;25.632;2024-02-26T02:09:38;98889.75;;;10.35;100.00
23417;BME280;11881;42.432;25.632;2024-02-26T02:12:04;98893.38;;;10.34;100.00
23417;BME280;11881;42.432;25.632;2024-02-26T02:14:29;98884.84;;;10.30;100.00
23417;BME280;11881;42.432;25.632;2024-02-26T02:16:55;98890.16;;;10.30;100.00
23417;BME280;11881;42.432;25.632;2024-02-26T02:19:21;98887.47;;;10.40;100.00
23417;BME280;11881;42.432;25.632;2024-02-26T02:21:46;98890.22;;;10.48;100.00
23417;BME280;11881;42.432;25.632;2024-02-26T02:24:12;98884.41;;;10.35;100.00
23417;BME280;11881;42.432;25.632;2024-02-26T02:26:37;98893.66;;;10.31;100.00
23417;BME280;11881;42.432;25.632;2024-02-26T02:29:03;98890.31;;;10.29;100.00
23417;BME280;11881;42.432;25.632;2024-02-26T02:31:29;98891.97;;;10.39;100.00
23417;BME280;11881;42.432;25.632;2024-02-26T02:33:55;98886.78;;;10.38;100.00
23417;BME280;11881;42.432;25.632;2024-02-26T02:36:20;98894.06;;;10.36;100.00
23417;BME280;11881;42.432;25.632;2024-02-26T02:38:52;98886.78;;;10.38;100.00
23417;BME280;11881;42.432;25.632;2024-02-26T02:41:18;98884.38;;;10.45;100.00
23417;BME280;11881;42.432;25.632;2024-02-26T02:43:44;98886.47;;;10.41;100.00
23417;BME280;11881;42.432;25.632;2024-02-26T02:46:09;98883.81;;;10.41;100.00
23417;BME280;11881;42.432;25.632;2024-02-26T02:48:37;98893.88;;;10.47;100.00
23417;BME280;11881;42.432;25.632;2024-02-26T02:51:03;98883.97;;;10.39;100.00
23417;BME280;11881;42.432;25.632;2024-02-26T02:53:28;98882.72;;;10.44;100.00
23417;BME280;11881;42.432;25.632;2024-02-26T02:55:54;98886.69;;;10.30;100.00
23417;BME280;11881;42.432;25.632;2024-02-26T02:58:19;98891.41;;;10.36;100.00
23417;BME280;11881;42.432;25.632;2024-02-26T03:00:45;98883.97;;;10.39;100.00
23417;BME280;11881;42.432;25.632;2024-02-26T03:03:10;98883.47;;;10.54;100.00
23417;BME280;11881;42.432;25.632;2024-02-26T03:05:36;98888.19;;;10.60;100.00
23417;BME280;11881;42.432;25.632;2024-02-26T03:08:01;98882.34;;;10.56;100.00
23417;BME280;11881;42.432;25.632;2024-02-26T03:10:27;98886.13;;;10.54;100.00
23417;BME280;11881;42.432;25.632;2024-02-26T03:12:54;98898.38;;;10.47;100.00
23417;BME280;11881;42.432;25.632;2024-02-26T03:15:19;98888.94;;;10.52;100.00
23417;BME280;11881;42.432;25.632;2024-02-26T03:17:45;98886.53;;;10.59;100.00
23417;BME280;11881;42.432;25.632;2024-02-26T03:20:10;98897.69;;;10.45;100.00
23417;BME280;11881;42.432;25.632;2024-02-26T03:22:38;98889.78;;;10.53;100.00
23417;BME280;11881;42.432;25.632;2024-02-26T03:25:04;98885.59;;;10.50;100.00
23417;BME280;11881;42.432;25.632;2024-02-26T03:27:30;98885.00;;;10.56;100.00
23417;BME280;11881;42.432;25.632;2024-02-26T03:29:55;98882.56;;;10.45;100.00
23417;BME280;11881;42.432;25.632;2024-02-26T03:32:22;98885.31;;;10.53;100.00
23417;BME280;11881;42.432;25.632;2024-02-26T03:34:47;98889.78;;;10.53;100.00
23417;BME280;11881;42.432;25.632;2024-02-26T03:37:12;98888.16;;;10.42;100.00
23417;BME280;11881;42.432;25.632;2024-02-26T03:39:38;98892.44;;;10.53;100.00
23417;BME280;11881;42.432;25.632;2024-02-26T03:42:04;98877.88;;;10.57;100.00
23417;BME280;11881;42.432;25.632;2024-02-26T03:44:29;98876.72;;;10.59;100.00
23417;BME280;11881;42.432;25.632;2024-02-26T03:46:55;98879.63;;;10.66;100.00
23417;BME280;11881;42.432;25.632;2024-02-26T03:49:21;98884.34;;;10.72;100.00
23417;BME280;11881;42.432;25.632;2024-02-26T03:51:48;98877.41;;;10.61;100.00
23417;BME280;11881;42.432;25.632;2024-02-26T03:54:13;98877.28;;;10.81;100.00
23417;BME280;11881;42.432;25.632;2024-02-26T03:56:39;98874.91;;;10.78;100.00
23417;BME280;11881;42.432;25.632;2024-02-26T03:59:04;98878.13;;;10.81;100.00
23417;BME280;11881;42.432;25.632;2024-02-26T04:01:30;98881.19;;;10.86;100.00
23417;BME280;11881;42.432;25.632;2024-02-26T04:03:55;98876.00;;;10.85;100.00
23417;BME280;11881;42.432;25.632;2024-02-26T04:06:21;98872.34;;;10.86;100.00
23417;BME280;11881;42.432;25.632;2024-02-26T04:08:47;98878.81;;;10.83;100.00
23417;BME280;11881;42.432;25.632;2024-02-26T04:11:13;98881.03;;;10.88;100.00
23417;BME280;11881;42.432;25.632;2024-02-26T04:13:43;98879.63;;;10.84;100.00
23417;BME280;11881;42.432;25.632;2024-02-26T04:16:11;98873.56;;;10.74;100.00
23417;BME280;11881;42.432;25.632;2024-02-26T04:18:37;98874.16;;;10.68;100.00
23417;BME280;11881;42.432;25.632;2024-02-26T04:21:04;98878.94;;;10.64;100.00
23417;BME280;11881;42.432;25.632;2024-02-26T04:23:30;98879.94;;;10.63;100.00
23417;BME280;11881;42.432;25.632;2024-02-26T04:25:56;98876.94;;;10.66;100.00
23417;BME280;11881;42.432;25.632;2024-02-26T04:28:21;98875.44;;;10.63;100.00
23417;BME280;11881;42.432;25.632;2024-02-26T04:30:47;98880.44;;;10.66;100.00
23417;BME280;11881;42.432;25.632;2024-02-26T04:33:13;98882.28;;;10.66;100.00
23417;BME280;11881;42.432;25.632;2024-02-26T04:35:39;98876.56;;;10.61;100.00
23417;BME280;11881;42.432;25.632;2024-02-26T04:38:04;98868.72;;;10.59;100.00
23417;BME280;11881;42.432;25.632;2024-02-26T04:40:30;98869.13;;;10.64;100.00
23417;BME280;11881;42.432;25.632;2024-02-26T04:42:55;98876.03;;;10.57;100.00
23417;BME280;11881;42.432;25.632;2024-02-26T04:45:21;98871.53;;;10.58;100.00
23417;BME280;11881;42.432;25.632;2024-02-26T04:47:46;98870.88;;;10.56;100.00
23417;BME280;11881;42.432;25.632;2024-02-26T04:50:12;98862.16;;;10.54;100.00
23417;BME280;11881;42.432;25.632;2024-02-26T04:52:37;98875.34;;;10.55;100.00
23417;BME280;11881;42.432;25.632;2024-02-26T04:55:03;98873.56;;;10.46;100.00
23417;BME280;11881;42.432;25.632;2024-02-26T04:57:29;98869.13;;;10.37;100.00
23417;BME280;11881;42.432;25.632;2024-02-26T04:59:54;98864.22;;;10.60;100.00
23417;BME280;11881;42.432;25.632;2024-02-26T05:02:20;98868.44;;;10.62;100.00
23417;BME280;11881;42.432;25.632;2024-02-26T05:04:45;98869.28;;;10.63;100.00
23417;BME280;11881;42.432;25.632;2024-02-26T05:07:11;98870.25;;;10.62;100.00
23417;BME280;11881;42.432;25.632;2024-02-26T05:09:37;98877.25;;;10.63;100.00
23417;BME280;11881;42.432;25.632;2024-02-26T05:12:03;98873.06;;;10.60;100.00
23417;BME280;11881;42.432;25.632;2024-02-26T05:14:29;98864.19;;;10.70;100.00
23417;BME280;11881;42.432;25.632;2024-02-26T05:16:54;98874.06;;;10.77;100.00
23417;BME280;11881;42.432;25.632;2024-02-26T05:19:20;98875.91;;;10.77;100.00
23417;BME280;11881;42.432;25.632;2024-02-26T05:21:45;98875.31;;;10.83;100.00
23417;BME280;11881;42.432;25.632;2024-02-26T05:24:12;98871.41;;;10.77;100.00
23417;BME280;11881;42.432;25.632;2024-02-26T05:26:38;98877.25;;;10.90;100.00
23417;BME280;11881;42.432;25.632;2024-02-26T05:29:03;98875.19;;;11.02;100.00
23417;BME280;11881;42.432;25.632;2024-02-26T05:31:29;98877.75;;;10.94;100.00
23417;BME280;11881;42.432;25.632;2024-02-26T05:33:54;98873.25;;;10.95;100.00
23417;BME280;11881;42.432;25.632;2024-02-26T05:36:21;98885.16;;;11.00;100.00
23417;BME280;11881;42.432;25.632;2024-02-26T05:38:48;98889.19;;;11.04;100.00
23417;BME280;11881;42.432;25.632;2024-02-26T05:41:17;98887.75;;;11.10;100.00
23417;BME280;11881;42.432;25.632;2024-02-26T05:43:49;98898.09;;;11.13;100.00
23417;BME280;11881;42.432;25.632;2024-02-26T05:46:17;98906.41;;;11.10;100.00
23417;BME280;11881;42.432;25.632;2024-02-26T05:48:43;98907.03;;;11.22;100.00
23417;BME280;11881;42.432;25.632;2024-02-26T05:51:09;98904.75;;;11.27;100.00
23417;BME280;11881;42.432;25.632;2024-02-26T05:53:34;98901.63;;;11.31;100.00
23417;BME280;11881;42.432;25.632;2024-02-26T05:56:00;98904.56;;;11.46;100.00
23417;BME280;11881;42.432;25.632;2024-02-26T05:58:25;98897.13;;;11.50;100.00
23417;BME280;11881;42.432;25.632;2024-02-26T06:00:51;98902.13;;;11.53;100.00
23417;BME280;11881;42.432;25.632;2024-02-26T06:03:16;98907.47;;;11.53;100.00
23417;BME280;11881;42.432;25.632;2024-02-26T06:05:42;98902.84;;;11.55;100.00
23417;BME280;11881;42.432;25.632;2024-02-26T06:08:08;98897.38;;;11.64;100.00
23417;BME280;11881;42.432;25.632;2024-02-26T06:10:33;98895.19;;;11.60;100.00
23417;BME280;11881;42.432;25.632;2024-02-26T06:12:59;98906.34;;;11.55;100.00
23417;BME280;11881;42.432;25.632;2024-02-26T06:15:24;98906.13;;;11.49;100.00
23417;BME280;11881;42.432;25.632;2024-02-26T06:17:50;98909.06;;;11.63;100.00
23417;BME280;11881;42.432;25.632;2024-02-26T06:20:15;98910.22;;;11.61;100.00
23417;BME280;11881;42.432;25.632;2024-02-26T06:22:41;98910.88;;;11.63;100.00
23417;BME280;11881;42.432;25.632;2024-02-26T06:25:07;98906.09;;;11.66;100.00
23417;BME280;11881;42.432;25.632;2024-02-26T06:27:33;98911.09;;;11.69;100.00
23417;BME280;11881;42.432;25.632;2024-02-26T06:29:58;98909.44;;;11.68;100.00
23417;BME280;11881;42.432;25.632;2024-02-26T06:32:24;98913.16;;;11.76;100.00
23417;BME280;11881;42.432;25.632;2024-02-26T06:34:49;98917.44;;;11.68;100.00
23417;BME280;11881;42.432;25.632;2024-02-26T06:37:15;98913.78;;;11.69;100.00
23417;BME280;11881;42.432;25.632;2024-02-26T06:39:41;98925.97;;;11.72;100.00
23417;BME280;11881;42.432;25.632;2024-02-26T06:42:07;98925.44;;;11.86;100.00
23417;BME280;11881;42.432;25.632;2024-02-26T06:44:33;98921.63;;;11.89;100.00
23417;BME280;11881;42.432;25.632;2024-02-26T06:46:59;98922.59;;;11.88;100.00
23417;BME280;11881;42.432;25.632;2024-02-26T06:49:25;98919.19;;;11.95;100.00
23417;BME280;11881;42.432;25.632;2024-02-26T06:51:51;98913.69;;;11.97;100.00
23417;BME280;11881;42.432;25.632;2024-02-26T06:54:16;98915.75;;;11.85;100.00
23417;BME280;11881;42.432;25.632;2024-02-26T06:56:42;98913.75;;;11.87;100.00
23417;BME280;11881;42.432;25.632;2024-02-26T06:59:07;98920.56;;;11.82;100.00
23417;BME280;11881;42.432;25.632;2024-02-26T07:01:33;98918.97;;;11.89;100.00
23417;BME280;11881;42.432;25.632;2024-02-26T07:03:58;98918.97;;;11.89;100.00
23417;BME280;11881;42.432;25.632;2024-02-26T07:06:24;98925.44;;;11.86;100.00
23417;BME280;11881;42.432;25.632;2024-02-26T07:08:49;98923.06;;;12.01;100.00
23417;BME280;11881;42.432;25.632;2024-02-26T07:11:15;98927.56;;;12.01;100.00
23417;BME280;11881;42.432;25.632;2024-02-26T07:13:40;98918.47;;;11.93;100.00
23417;BME280;11881;42.432;25.632;2024-02-26T07:16:06;98916.88;;;12.01;100.00
23417;BME280;11881;42.432;25.632;2024-02-26T07:18:34;98924.63;;;12.12;100.00
23417;BME280;11881;42.432;25.632;2024-02-26T07:21:02;98929.09;;;12.11;100.00
23417;BME280;11881;42.432;25.632;2024-02-26T07:23:27;98928.81;;;12.14;100.00
23417;BME280;11881;42.432;25.632;2024-02-26T07:25:53;98927.44;;;12.10;100.00
23417;BME280;11881;42.432;25.632;2024-02-26T07:28:19;98934.97;;;12.15;100.00
23417;BME280;11881;42.432;25.632;2024-02-26T07:30:44;98925.19;;;12.23;100.00
23417;BME280;11881;42.432;25.632;2024-02-26T07:33:10;98915.75;;;12.37;100.00
23417;BME280;11881;42.432;25.632;2024-02-26T07:35:35;98919.69;;;12.25;100.00
23417;BME280;11881;42.432;25.632;2024-02-26T07:38:04;98922.63;;;12.14;100.00
23417;BME280;11881;42.432;25.632;2024-02-26T07:40:30;98930.47;;;12.15;100.00
23417;BME280;11881;42.432;25.632;2024-02-26T07:42:55;98925.88;;;12.25;100.00
23417;BME280;11881;42.432;25.632;2024-02-26T07:45:21;98916.41;;;12.39;100.00
23417;BME280;11881;42.432;25.632;2024-02-26T07:47:47;98915.56;;;12.65;100.00
23417;BME280;11881;42.432;25.632;2024-02-26T07:50:13;98917.94;;;12.76;100.00
23417;BME280;11881;42.432;25.632;2024-02-26T07:52:39;98925.00;;;12.51;100.00
23417;BME280;11881;42.432;25.632;2024-02-26T07:55:05;98926.81;;;12.50;100.00
23417;BME280;11881;42.432;25.632;2024-02-26T07:57:32;98926.06;;;12.58;100.00
23417;BME280;11881;42.432;25.632;2024-02-26T07:59:59;98917.88;;;12.60;100.00
23417;BME280;11881;42.432;25.632;2024-02-26T08:02:24;98911.59;;;12.85;100.00
23417;BME280;11881;42.432;25.632;2024-02-26T08:04:50;98916.47;;;12.98;100.00
23417;BME280;11881;42.432;25.632;2024-02-26T08:07:15;98922.66;;;12.98;100.00
23417;BME280;11881;42.432;25.632;2024-02-26T08:09:41;98929.84;;;12.90;100.00
23417;BME280;11881;42.432;25.632;2024-02-26T08:12:07;98938.56;;;13.00;100.00
23417;BME280;11881;42.432;25.632;2024-02-26T08:14:32;98938.38;;;13.01;100.00
23417;BME280;11881;42.432;25.632;2024-02-26T08:16:58;98945.44;;;13.11;100.00
23417;BME280;11881;42.432;25.632;2024-02-26T08:19:24;98936.97;;;13.31;100.00
23417;BME280;11881;42.432;25.632;2024-02-26T08:21:50;98945.66;;;13.25;100.00
23417;BME280;11881;42.432;25.632;2024-02-26T08:24:15;98949.66;;;13.21;100.00
23417;BME280;11881;42.432;25.632;2024-02-26T08:26:41;98950.81;;;13.19;100.00
23417;BME280;11881;42.432;25.632;2024-02-26T08:29:06;98953.06;;;12.89;100.00
23417;BME280;11881;42.432;25.632;2024-02-26T08:31:31;98955.66;;;12.73;100.00
23417;BME280;11881;42.432;25.632;2024-02-26T08:33:57;98959.53;;;12.78;100.00
23417;BME280;11881;42.432;25.632;2024-02-26T08:36:24;98957.47;;;12.64;100.00
23417;BME280;11881;42.432;25.632;2024-02-26T08:38:49;98953.47;;;12.68;100.00
23417;BME280;11881;42.432;25.632;2024-02-26T08:41:15;98950.97;;;12.67;100.00
23417;BME280;11881;42.432;25.632;2024-02-26T08:43:40;98946.78;;;12.64;100.00
23417;BME280;11881;42.432;25.632;2024-02-26T08:46:09;98942.78;;;13.19;100.00
23417;BME280;11881;42.432;25.632;2024-02-26T08:48:35;98947.25;;;13.10;100.00
23417;BME280;11881;42.432;25.632;2024-02-26T08:51:07;98939.41;;;13.09;100.00
23417;BME280;11881;42.432;25.632;2024-02-26T08:53:33;98940.50;;;13.32;100.00
23417;BME280;11881;42.432;25.632;2024-02-26T08:55:59;98940.41;;;13.08;100.00
23417;BME280;11881;42.432;25.632;2024-02-26T08:58:24;98937.16;;;13.30;100.00
23417;BME280;11881;42.432;25.632;2024-02-26T09:00:50;98924.38;;;13.08;100.00
23417;BME280;11881;42.432;25.632;2024-02-26T09:03:15;98910.16;;;13.07;100.00
23417;BME280;11881;42.432;25.632;2024-02-26T09:05:42;98904.53;;;13.26;100.00
23417;BME280;11881;42.432;25.632;2024-02-26T09:08:08;98904.03;;;13.31;100.00
23417;BME280;11881;42.432;25.632;2024-02-26T09:10:34;98898.88;;;13.70;100.00
23417;BME280;11881;42.432;25.632;2024-02-26T09:12:59;98888.66;;;13.66;100.00
23417;BME280;11881;42.432;25.632;2024-02-26T09:15:25;98884.63;;;13.78;100.00
23417;BME280;11881;42.432;25.632;2024-02-26T09:17:50;98890.31;;;13.99;100.00
23417;BME280;11881;42.432;25.632;2024-02-26T09:20:17;98894.81;;;14.15;100.00
23417;BME280;11881;42.432;25.632;2024-02-26T09:22:46;98886.59;;;14.17;100.00
23417;BME280;11881;42.432;25.632;2024-02-26T09:25:12;98886.59;;;14.17;100.00
23417;BME280;11881;42.432;25.632;2024-02-26T09:27:37;98895.25;;;14.35;100.00
23417;BME280;11881;42.432;25.632;2024-02-26T09:30:03;98890.38;;;14.38;100.00
23417;BME280;11881;42.432;25.632;2024-02-26T09:32:29;98887.00;;;14.36;100.00
23417;BME280;11881;42.432;25.632;2024-02-26T09:34:55;98893.34;;;14.44;100.00
23417;BME280;11881;42.432;25.632;2024-02-26T09:37:21;98893.19;;;14.45;100.00
23417;BME280;11881;42.432;25.632;2024-02-26T09:39:46;98892.50;;;14.59;100.00
23417;BME280;11881;42.432;25.632;2024-02-26T09:42:13;98886.53;;;14.33;100.00
23417;BME280;11881;42.432;25.632;2024-02-26T09:44:40;98892.22;;;14.38;100.00
23417;BME280;11881;42.432;25.632;2024-02-26T09:47:09;98885.66;;;14.57;100.00
23417;BME280;11881;42.432;25.632;2024-02-26T09:49:36;98885.59;;;14.73;100.00
23417;BME280;11881;42.432;25.632;2024-02-26T09:52:04;98890.84;;;14.42;100.00
23417;BME280;11881;42.432;25.632;2024-02-26T09:54:30;98889.69;;;14.36;100.00
23417;BME280;11881;42.432;25.632;2024-02-26T09:56:59;98886.59;;;14.17;100.00
23417;BME280;11881;42.432;25.632;2024-02-26T09:59:26;98882.38;;;14.22;100.00
23417;BME280;11881;42.432;25.632;2024-02-26T10:01:53;98887.81;;;14.53;100.00
23417;BME280;11881;42.432;25.632;2024-02-26T10:04:19;98884.00;;;14.31;100.00
23417;BME280;11881;42.432;25.632;2024-02-26T10:06:45;98881.16;;;14.41;100.00
23417;BME280;11881;42.432;25.632;2024-02-26T10:09:12;98872.91;;;14.43;100.00
23417;BME280;11881;42.432;25.632;2024-02-26T10:11:38;98874.81;;;14.26;100.00
23417;BME280;11881;42.432;25.632;2024-02-26T10:14:05;98868.78;;;14.32;100.00
23417;BME280;11881;42.432;25.632;2024-02-26T10:16:31;98867.75;;;14.41;100.00
23417;BME280;11881;42.432;25.632;2024-02-26T10:18:57;98868.16;;;14.14;100.00
23417;BME280;11881;42.432;25.632;2024-02-26T10:21:24;98872.34;;;14.16;100.00
23417;BME280;11881;42.432;25.632;2024-02-26T10:23:49;98868.41;;;14.51;100.00
23417;BME280;11881;42.432;25.632;2024-02-26T10:26:18;98865.22;;;14.48;100.00
23417;BME280;11881;42.432;25.632;2024-02-26T10:28:45;98856.56;;;14.29;100.00
23417;BME280;11881;42.432;25.632;2024-02-26T10:31:11;98855.81;;;14.44;100.00
23417;BME280;11881;42.432;25.632;2024-02-26T10:33:39;98848.44;;;14.62;100.00
23417;BME280;11881;42.432;25.632;2024-02-26T10:36:06;98845.06;;;14.60;100.00
23417;BME280;11881;42.432;25.632;2024-02-26T10:38:33;98832.13;;;14.95;100.00
23417;BME280;11881;42.432;25.632;2024-02-26T10:40:59;98832.97;;;14.95;100.00
23417;BME280;11881;42.432;25.632;2024-02-26T10:43:28;98820.94;;;15.14;100.00
23417;BME280;11881;42.432;25.632;2024-02-26T10:45:56;98817.47;;;15.28;100.00
23417;BME280;11881;42.432;25.632;2024-02-26T10:48:22;98812.44;;;15.48;100.00
23417;BME280;11881;42.432;25.632;2024-02-26T10:50:47;98796.06;;;15.58;100.00
23417;BME280;11881;42.432;25.632;2024-02-26T10:53:17;98796.44;;;15.55;100.00
23417;BME280;11881;42.432;25.632;2024-02-26T10:56:00;98783.44;;;16.11;100.00
23417;BME280;11881;42.432;25.632;2024-02-26T10:58:27;98782.72;;;16.02;100.00
23417;BME280;11881;42.432;25.632;2024-02-26T11:00:56;98787.19;;;16.46;100.00
23417;BME280;11881;42.432;25.632;2024-02-26T11:03:22;98785.38;;;16.32;100.00
23417;BME280;11881;42.432;25.632;2024-02-26T11:05:49;98788.25;;;16.15;100.00
23417;BME280;11881;42.432;25.632;2024-02-26T11:08:18;98787.50;;;16.21;100.00
23417;BME280;11881;42.432;25.632;2024-02-26T11:10:47;98783.44;;;16.26;98.24
23417;BME280;11881;42.432;25.632;2024-02-26T11:13:14;98790.09;;;16.30;95.18
23417;BME280;11881;42.432;25.632;2024-02-26T11:15:40;98786.94;;;16.41;96.47
23417;BME280;11881;42.432;25.632;2024-02-26T11:18:07;98784.50;;;16.46;100.00
23417;BME280;11881;42.432;25.632;2024-02-26T11:20:38;98784.88;;;16.43;99.21
23417;BME280;11881;42.432;25.632;2024-02-26T11:23:04;98787.13;;;16.10;100.00
23417;BME280;11881;42.432;25.632;2024-02-26T11:25:31;98791.88;;;16.08;100.00
23417;BME280;11881;42.432;25.632;2024-02-26T11:28:01;98794.00;;;15.98;100.00
23417;BME280;11881;42.432;25.632;2024-02-26T11:30:32;98796.59;;;16.06;100.00
23417;BME280;11881;42.432;25.632;2024-02-26T11:32:58;98792.63;;;16.02;100.00
23417;BME280;11881;42.432;25.632;2024-02-26T11:35:24;98785.13;;;15.97;100.00
23417;BME280;11881;42.432;25.632;2024-02-26T11:37:57;98780.09;;;16.23;100.00
23417;BME280;11881;42.432;25.632;2024-02-26T11:40:26;98785.56;;;16.15;100.00
23417;BME280;11881;42.432;25.632;2024-02-26T11:42:52;98784.28;;;15.96;100.00
23417;BME280;11881;42.432;25.632;2024-02-26T11:48:15;98767.66;;;16.22;100.00
23417;BME280;11881;42.432;25.632;2024-02-26T11:50:47;98774.31;;;16.41;100.00
23417;BME280;11881;42.432;25.632;2024-02-26T11:53:23;98770.00;;;16.11;100.00
23417;BME280;11881;42.432;25.632;2024-02-26T11:58:40;98771.72;;;16.48;100.00
23417;BME280;11881;42.432;25.632;2024-02-26T12:01:35;98763.66;;;16.33;100.00
23417;BME280;11881;42.432;25.632;2024-02-26T12:04:02;98769.34;;;16.23;100.00
23417;BME280;11881;42.432;25.632;2024-02-26T12:06:27;98778.44;;;15.93;100.00
23417;BME280;11881;42.432;25.632;2024-02-26T12:08:54;98782.06;;;15.85;100.00
23417;BME280;11881;42.432;25.632;2024-02-26T12:11:20;98774.72;;;15.94;100.00
23417;BME280;11881;42.432;25.632;2024-02-26T12:13:49;98773.44;;;16.05;100.00
23417;BME280;11881;42.432;25.632;2024-02-26T12:16:35;98778.25;;;16.24;97.96
23417;BME280;11881;42.432;25.632;2024-02-26T12:19:04;98786.75;;;16.28;96.95
23417;BME280;11881;42.432;25.632;2024-02-26T12:21:31;98785.00;;;16.20;96.34
23417;BME280;11881;42.432;25.632;2024-02-26T12:24:07;98777.03;;;16.27;97.00
23417;BME280;11881;42.432;25.632;2024-02-26T12:26:34;98782.78;;;16.23;96.48
23417;BME280;11881;42.432;25.632;2024-02-26T12:29:00;98784.81;;;16.36;92.69
23417;BME280;11881;42.432;25.632;2024-02-26T12:31:26;98786.88;;;16.19;91.43
23417;BME280;11881;42.432;25.632;2024-02-26T12:33:54;98791.44;;;16.40;89.47
23417;BME280;11881;42.432;25.632;2024-02-26T12:36:21;98787.97;;;16.10;85.37
23417;BME280;11881;42.432;25.632;2024-02-26T12:38:49;98782.50;;;16.04;84.55
23417;BME280;11881;42.432;25.632;2024-02-26T12:41:16;98780.94;;;15.80;87.04